ENAL/AES METAR and TAF weather

Enter ICAO airport designator
Station Type Date Time Source
ENAL METAR 2018/04/21 12:50 UTC NOAA

ENAL 211250Z 24016KT 9999 FEW015 BKN025 08/06 Q1017


Station Type Date Time Source
ENAL Decoded METAR 2018/04/21 12:50 UTC NOAA

Alesund / Vigra, Norway (ENAL) 62-34N 006-07E 22M
Apr 21, 2018 - 08:50 AM EDT / 2018.04.21 1250 UTC
Wind: from the WSW (240 degrees) at 18 MPH (16 KT):0
Visibility: greater than 7 mile(s):0
Sky conditions: mostly cloudy
Temperature: 46 F (8 C)
Dew Point: 42 F (6 C)
Relative Humidity: 87%
Pressure (altimeter): 30.03 in. Hg (1017 hPa)
ob: ENAL 211250Z 24016KT 9999 FEW015 BKN025 08/06 Q1017
cycle: 13

Station Type Date Time Source
ENAL TAF UTC NOAA

Error!


Example: see airport list